TAF KDDC
KDDC 280520Z 2806/2906 32008KT P6SM SKC FM281900 21014G23KT P6SM FEW250 FM290200 23008KT P6SM FEW250=
METAR KDDC
WC KDDC
WS KDDC
WV KDDC